Nicolò De Angelis

Chief Scout - Spezia
20 Feb 2028
Sunday
Process

Personality

Adaptability (1) Ambition (19) Controversy (1) Loyalty (18) Pressure (6) Professionalism (4) Sportsmanship (13) Temperament (8)

Profile

Coaching Style Democratic
License Continental Pro
Determination 10
Man Management 5
Motivating 12
Discipline 8
Job Satisfaction
100%
Fatigue
0%
Role Chief Scout
Wage 59.6K p/w
Contract 14.03.2030

Performance

Behaviour Good
Training Effectiveness
31%
Player Development
55%
Injury Prevention
25%
Tactical Implementation
20%

Recent Events

Attended a recruitment meeting now
Attended a recruitment meeting now
Attended a recruitment meeting 7d ago
Attended a recruitment meeting 7d ago
Recommended a transfer target 7d ago
Recommended a transfer target 7d ago
Recommended a transfer target 7d ago
Assessed a player 14d ago

Currently Monitoring

218
Player Club Status Ability Confidence Watched Last Observed Latest Vote
Theo Bair AJ Auxerre Active 126 / 118 40% 1 03.02.2028 -
Facundo Batista Penarol Active 118 / 118 40% 1 03.02.2028 -
Simone D'Uffizi Ascoli Lost 115 / 102 76% 1 31.01.2028 Approve
Juan Rocca Gimnasia y Tiro Lost 118 / 107 40% 1 24.01.2028 -
Jhonatan Candia Barracas Central Lost 119 / 127 40% 1 24.01.2028 -
Jérémy Le Douaron Palermo Lost 128 / 129 40% 1 24.01.2028 -
Sascha Britschgi Padova Active 120 / 128 40% 7 22.01.2028 -
Daniel Banjaqui Benfica Active 118 / 125 40% 2 22.01.2028 -
Claudio Martey Pianese Active 85 / 82 40% 1 22.01.2028 -
Lewis Morgan SuperSport United Lost 125 / 140 40% 1 10.01.2028 -
Yegor Kortsov Dinamo Brest Active 115 / 105 40% 1 10.01.2028 -
Lucas Camejo River Plate Active 82 / 87 40% 3 05.01.2028 -
Ángel Aguayo Sol de America Active 98 / 108 40% 1 05.01.2028 -
Mao Hosoya Everton Negotiating 134 / 135 67% 1 01.01.2028 Approve
Santiago Hezze Chaves Active 132 / 133 62% 1 01.01.2028 Approve
Jefry Zapata Danubio Lost 118 / 118 67% 1 01.01.2028 Approve
Juan Morán Godoy Cruz Active 111 / 105 40% 2 31.12.2027 -
Avery Appiah Ajax Active 120 / 115 40% 1 31.12.2027 -
Jovan Milosavljević Kalmar FF Active 108 / 116 40% 1 27.12.2027 -
Mauro Carrizo Atlético Tucumán Active 102 / 114 40% 5 26.12.2027 -
Jayden Joseph Bradford City Active 92 / 94 40% 1 26.12.2027 -
Niccolò Fortini Fiorentina Active 134 / 137 40% 3 25.12.2027 -
Hosea Michael Remo Stars Active 92 / 82 40% 5 25.12.2027 -
Adam Boufandar Siracusa Active 96 / 104 40% 1 25.12.2027 -
Jofre Torrents Ajax Active 134 / 128 40% 6 24.12.2027 -
Mikkel Hope Haugesund Active 107 / 118 40% 4 24.12.2027 -
Jhon Cortez Barranquilla Active 81 / 92 40% 2 24.12.2027 -
Tobias Moi Bodo/Glimt Active 102 / 126 40% 3 23.12.2027 -
Nejc Viher NK Maribor Active 106 / 116 40% 1 23.12.2027 -
Olaniyi Saheed Kwara United Active 105 / 103 40% 2 20.12.2027 -
Leonardo Mendicino Bari Active 119 / 135 40% 1 20.12.2027 -
Rivaldo Grobler Free State Stars Active 103 / 101 40% 2 19.12.2027 -
Tobias Slotsager Casertana Active 117 / 117 40% 3 17.12.2027 -
Tiago Parente Benfica Active 111 / 122 40% 4 16.12.2027 -
Hervin Goyes Deportivo Pasto Active 112 / 111 40% 6 16.12.2027 -
Tyson Pearce St. Louis CITY SC Active 94 / 108 40% 5 15.12.2027 -
Cristian Guzmán Universitario Popayan Active 91 / 90 40% 1 15.12.2027 -
Darryl Bakola Padova Active 116 / 120 40% 6 14.12.2027 -
Aiden Hezarkhani Real Salt Lake Active 93 / 91 40% 1 14.12.2027 -
Gift Udoh Ikorodu City Active 98 / 78 40% 7 13.12.2027 -
Juan Camilo Córdoba Deportivo Pereira Active 84 / 98 40% 4 13.12.2027 -
Miguel Figueiredo Cesena Active 117 / 118 40% 1 12.12.2027 -
Jorthy Mokio ADO Den Haag Active 134 / 131 40% 1 12.12.2027 -
Felipe Obradovich Ferro Carril Oeste Active 111 / 115 40% 1 11.12.2027 -
Aleko Basiladze Slovan Liberec Active 104 / 112 40% 1 11.12.2027 -
Eduardo Felicíssimo Sporting CP Active 116 / 129 40% 1 09.12.2027 -
Harrison Armstrong Everton Active 138 / 140 40% 1 09.12.2027 -
Theodor Lundbergh Malmo FF Active 92 / 100 40% 3 08.12.2027 -
Narcis Ilaş CFR Cluj Active 103 / 113 40% 3 07.12.2027 -
Gonçalo Oliveira Benfica Active 111 / 121 40% 2 06.12.2027 -
Dmitry Pestryakov Dinamo Moscow Active 118 / 120 40% 4 06.12.2027 -
Colin Guske Orlando City Active 94 / 108 40% 2 05.12.2027 -
Joel Ezra Enyimba Active 104 / 88 40% 2 03.12.2027 -
Davide Bartesaghi AC Milan Active 138 / 133 40% 1 03.12.2027 -
Tiago Gordillo San Miguel Active 81 / 100 40% 3 02.12.2027 -
Eddy Kouadio Crotone Active 106 / 113 40% 2 01.12.2027 -
Andrea Cogoni Cosenza Active 104 / 121 40% 1 01.12.2027 -
Alejandro Almaraz Nueva Chicago Active 105 / 112 40% 3 25.11.2027 -
Mattia Puzone Siracusa Active 99 / 110 40% 2 23.11.2027 -
Harbor Miller LA Galaxy Active 94 / 96 40% 2 23.11.2027 -
Sam Curtis Cambridge United Active 102 / 105 40% 2 22.11.2027 -
Diego Vargas San Marcos de Arica Active 95 / 94 40% 2 21.11.2027 -
Matteo Milan Cheltenham Town Active 91 / 89 40% 2 21.11.2027 -
Celías Ingenthron Vélez Active 114 / 129 40% 2 18.11.2027 -
Emiliano Bértoli Patronato Active 95 / 91 40% 1 14.11.2027 -
Samuel Posada Leones Active 91 / 89 40% 5 11.11.2027 -
Fillip Jenssen Riise Stabaek Active 90 / 103 40% 5 09.11.2027 -
Nazareno Roselli Defensa y Justicia Active 114 / 115 40% 1 08.11.2027 -
Somtochuwku Ezenabo Kwara United Active 80 / 93 40% 1 05.11.2027 -
Alessandro Capello Arezzo Active 116 / 116 42% 1 / 1m 03.11.2027 -
João Costa Arezzo Active 85 / 88 30% 1 / 1m 03.11.2027 -
Mattia Damiani Arezzo Active 111 / 114 30% 1 / 1m 03.11.2027 -
Frankie Westfield Philadelphia Union Active 108 / 116 40% 1 02.11.2027 -
Matías Gómez Granada Active 124 / 134 40% 1 29.10.2027 -
Juan Giménez Celta Active 121 / 127 40% 1 26.10.2027 -
Kwesi Sorotu Badori Berekum Chelsea Active 86 / 118 40% 1 22.10.2027 -
Víctor Reyes Deportes Tolima Active 89 / 106 40% 1 20.10.2027 -
Dominik Chong Qui Atlanta United FC Active 93 / 92 40% 2 19.10.2027 -
David Odogu AC Milan Active 135 / 130 40% 1 14.10.2027 -
Mohamed Bolivar Barranquilla Active 84 / 103 40% 1 14.10.2027 -
Ignacio Fernández Boston River Active 88 / 108 40% 2 12.10.2027 -
Uche Jaguar Kwara United Active 88 / 91 40% 1 12.10.2027 -
José Correa Deportivo Tachira Active 89 / 101 40% 1 12.10.2027 -
Kelechi Onwe Ikorodu City Active 94 / 90 40% 1 11.10.2027 -
Christ Inao Oulaï Fiorentina Active 140 / 153 40% 1 11.10.2027 -
Chibueze Oputa Rangers International Active 83 / 107 40% 1 09.10.2027 -
Álvaro Navoni Tigre Active 89 / 93 40% 1 09.10.2027 -
Julián Bazán Philadelphia Union Active 117 / 122 40% 1 08.10.2027 -
Agustín Obregón River Plate Active 106 / 111 40% 1 08.10.2027 -
Daniel Gomez Valledupar Active 92 / 86 40% 1 23.08.2027 -
Martin Georgiev Aris Thessaloniki Active 117 / 130 40% 1 23.08.2027 -
Zane Albarus Cambridge United Active 96 / 113 40% 2 09.08.2027 -
Veljko Milosavljević Aston Villa Active 143 / 151 40% 1 09.08.2027 -
Riley Owen Trento Active 105 / 104 40% 1 05.07.2027 -
Andrea Bertoncini Carpi Active 97 / 91 40% 1 05.07.2027 -
Dion Beljo Standard Liege Lost 131 / 132 66% 1 01.06.2027 Approve
Percy Jali Free State Stars Active 102 / 111 40% 1 06.02.2027 -
Matvey Kislyak CSKA Moscow Active 141 / 153 40% 1 06.02.2027 -
Raymond Agyemang Aduana Stars Active 73 / 92 40% 1 04.02.2027 -
Pietro Reggiori Pro Patria Active 97 / 100 40% 1 04.02.2027 -
Tsvetoslav Marinov Spartak 1918 Active 95 / 85 40% 1 02.02.2027 -
Josh King Chelsea Active 139 / 141 40% 1 01.02.2027 -
Matteo Rover Reggiana Lost 125 / 115 40% 2 11.01.2027 -
Marcelo Allende Mamelodi Sundowns Active 141 / 126 40% 1 11.01.2027 -
Antoine Bernede Hellas Verona Active 124 / 133 40% 1 11.01.2027 -
Tijjani Noslin Lazio Active 142 / 145 40% 3 30.12.2026 -
Bongani Mothiba SuperSport United Active 73 / 80 40% 2 30.12.2026 -
Tamerlan Musaev CSKA Moscow Lost 126 / 130 40% 1 30.12.2026 -
Papa Ndiaga Yade Oleksandriya Active 101 / 110 40% 1 29.12.2026 -
José Martínes CSKA 1948 Active 110 / 94 40% 1 28.12.2026 -
Jacopo Desogus AlbinoLeffe Active 108 / 105 40% 1 28.12.2026 -
Danylo Kravchuk LNZ Active 90 / 93 40% 1 28.12.2026 -
Jens Odgaard Bologna Active 132 / 144 40% 9 27.12.2026 Monitor
Konan N'Dri Lecce Active 131 / 120 40% 2 25.12.2026 -
David Romero Parma Active 124 / 136 40% 2 25.12.2026 -
Lucas Da Cunha Como Active 142 / 140 40% 1 25.12.2026 -
Nicolò Cambiaghi Bologna Active 147 / 142 40% 1 24.12.2026 -
Lorenzo Ignacchiti Empoli Active 113 / 121 40% 1 24.12.2026 -
Evidence Makgopa Orlando Pirates Active 105 / 123 40% 3 23.12.2026 -
Ruben van Bommel Ferencvaros Active 130 / 142 40% 3 20.12.2026 -
Mduduzi Shabalala Kaizer Chiefs Active 117 / 119 40% 2 20.12.2026 -
Emanuele Schimmenti Potenza Active 116 / 117 40% 1 20.12.2026 -
Kenan Dervišagić Floriana Active 108 / 102 40% 1 20.12.2026 -
Romano Schmid Frosinone Active 145 / 142 40% 3 16.12.2026 -
Nadir Zortea Bologna Active 132 / 130 40% 2 16.12.2026 -
Rômulo RB Leipzig Active 139 / 141 40% 2 16.12.2026 -
Nicolás Cordero Aldosivi Lost 126 / 125 40% 2 14.12.2026 -
Ammar Ramadan DAC Dunajska Streda Lost 127 / 113 40% 2 14.12.2026 -
Alessio Zerbin Frosinone Active 135 / 122 40% 3 14.12.2026 -
Tommaso Pobega Bologna Active 142 / 143 40% 1 13.12.2026 -
Oswin Appollis Orlando Pirates Active 112 / 119 40% 1 10.12.2026 -
Cristian Shpendi Cesena Active 131 / 139 40% 1 10.12.2026 -
Amin Sarr Hellas Verona Active 125 / 131 40% 2 05.12.2026 -
Raoul Bellanova Atalanta Active 147 / 152 40% 2 04.12.2026 -
Eren Aydın Zira Active 115 / 115 40% 2 04.12.2026 -
Milán Tóth Vasas Active 97 / 113 40% 1 02.12.2026 -
Camillo Tavernelli Arezzo Active 122 / 108 40% 1 02.12.2026 -
Jacques Siwe Rubin Active 124 / 101 40% 1 01.12.2026 -
Etiosa Ighodaro Kaizer Chiefs Active 118 / 120 40% 1 01.12.2026 -
Willem Geubbels Lecce Active 133 / 119 40% 1 01.12.2026 -
Bamba Dieng Crvena Zvezda Active 125 / 135 40% 3 29.11.2026 -
Kwame Opoku Asante Kotoko Active 104 / 99 40% 1 29.11.2026 -
Youssoufa Moukoko FC Copenhagen Active 119 / 129 40% 2 28.11.2026 -
Stiven Shpendi Empoli Active 117 / 124 40% 1 28.11.2026 -
Juan Manuel Boselli Krasnodar Active 133 / 106 40% 2 27.11.2026 -
Bénie Traoré New York City Active 120 / 122 40% 4 26.11.2026 -
Sead Hakšabanović Malmo FF Active 134 / 133 40% 3 26.11.2026 -
Gianluca Contini Siracusa Active 96 / 107 40% 1 25.11.2026 -
Berna CSKA 1948 Active 113 / 112 40% 1 25.11.2026 -
Bernat Guiu Virtus Entella Active 118 / 107 40% 1 25.11.2026 -
Luciano Gondou CSKA Moscow Active 128 / 135 40% 1 24.11.2026 -
Emanuele Pecorino Catanzaro Active 102 / 100 40% 1 24.11.2026 -
Petar Stanić Ludogorets Active 126 / 119 40% 2 22.11.2026 -
Santiago Pierotti Lecce Active 124 / 130 40% 2 22.11.2026 -
Tshepang Moremi Orlando Pirates Active 122 / 113 40% 1 22.11.2026 -
Juan Miranda Bologna Active 148 / 130 40% 1 22.11.2026 -
Diego García Malmo FF Active 118 / 110 40% 1 22.11.2026 -
Fiete Arp OB Active 119 / 137 40% 2 20.11.2026 -
Pablo Rodríguez Lech Active 136 / 119 40% 1 17.11.2026 -
David Miculescu FCSB Active 120 / 103 40% 2 16.11.2026 -
Mandla Mahlangu Ajax Cape Town Active 116 / 91 40% 4 15.11.2026 -
Sota Kitano Luzern Active 126 / 117 40% 1 14.11.2026 -
Ibrahim Adel FC Nordsjaelland Active 130 / 126 40% 1 14.11.2026 -
Kévin Denkey FC Cincinnati Active 123 / 125 40% 1 13.11.2026 -
Rilind Nivokazi Sion Active 124 / 110 40% 1 10.11.2026 -
Ramiro Ruiz Rodríguez Atlético Tucumán Active 119 / 114 40% 1 10.11.2026 -
Themba Ngcobo SuperSport United Active 129 / 128 40% 3 09.11.2026 -
Max Fenger IFK Goteborg Active 129 / 113 40% 2 07.11.2026 -
Emanuele Valeri Parma Active 127 / 139 40% 1 07.11.2026 -
Leonardo Campana New England Revolution Active 132 / 121 40% 1 03.11.2026 -
Peter Christiansen Viking Active 112 / 110 40% 1 03.11.2026 -
Giacomo Raspadori Atalanta Active 150 / 134 40% 3 02.11.2026 -
Christian Krasnodar Active 136 / 135 40% 2 31.10.2026 -
Agustín Módica Gimnasia y Esgrima Active 113 / 113 40% 1 28.10.2026 -
Alexander Aravena Portland Timbers Active 122 / 123 40% 2 27.10.2026 -
Aleksa Terzić Frosinone Active 133 / 121 40% 1 26.10.2026 -
Georginio Rutter Brighton Active 146 / 151 40% 3 23.10.2026 -
Tomás González Piast Active 106 / 131 40% 1 23.10.2026 -
Ilyas Ansah Hull City Active 132 / 131 40% 1 22.10.2026 -
Jesus Ferreira Seattle Sounders Active 126 / 123 40% 1 19.10.2026 -
Xavi Simons Tottenham Active 158 / 164 40% 1 16.10.2026 -
Andri Guðjohnsen Blackburn Rovers Active 125 / 121 40% 1 16.10.2026 -
Luis Vázquez Birmingham Active 132 / 127 40% 1 15.10.2026 -
Adnan Courtois KV Oostende Active 139 / 125 40% 2 14.10.2026 -
Mattia Felici Cagliari Active 130 / 125 40% 2 11.10.2026 -
Joe Gelhardt Hull City Active 123 / 128 40% 2 11.10.2026 -
Tommy Conway Middlesbrough Active 124 / 122 40% 1 11.10.2026 -
Rômulo Tigres Active 129 / 121 40% 1 10.10.2026 -
Max Bird Birmingham Active 132 / 127 40% 1 10.10.2026 -
Telasco Segovia Inter Miami CF Active 137 / 126 40% 1 10.10.2026 -
Dávid Strelec Middlesbrough Active 134 / 146 40% 1 09.10.2026 -
Agustín Paz Progreso Active 115 / 117 40% 2 05.10.2026 -
August Priske Birmingham Active 127 / 122 40% 1 05.10.2026 -
Rafael Navarro St. Louis CITY SC Active 119 / 126 40% 2 02.10.2026 -
Luca Martínez Dupuy Godoy Cruz Active 119 / 128 40% 1 02.10.2026 -
Cheikh Sabaly Vancouver Whitecaps Active 130 / 126 40% 2 29.09.2026 -
Richard Koné Queens Park Rangers Active 116 / 127 40% 1 27.09.2026 -
Lorent Tolaj Plymouth Argyle Active 112 / 127 40% 2 26.09.2026 -
Dom Ballard Leyton Orient Active 122 / 128 40% 1 26.09.2026 -
Dejan Joveljić Seattle Sounders Active 128 / 126 40% 3 24.09.2026 -
Alexander Díaz Deportivo Riestra Active 116 / 109 40% 1 24.09.2026 -
Agustín Anello Philadelphia Union Active 130 / 116 40% 1 24.09.2026 -
Facundo Mura Inter Miami CF Active 130 / 128 40% 2 23.09.2026 -
Lukas Nmecha Leeds United Active 127 / 122 40% 1 23.09.2026 -
Alexis Cuello San Lorenzo Active 118 / 126 40% 1 20.09.2026 -
Dwight McNeil Crystal Palace Active 132 / 144 40% 1 18.09.2026 -
Tyrese Campbell Sheffield United Active 118 / 120 40% 1 18.09.2026 -
Matías Fernández Independiente Rivadavia Active 125 / 115 40% 1 17.09.2026 -
Wessam Abou Ali Columbus Crew Active 137 / 132 40% 1 15.09.2026 -
Antony Portland Timbers Active 130 / 123 40% 1 15.09.2026 -
Mateo Zuleta Once Caldas Active 124 / 127 40% 1 15.09.2026 -
Misael Sosa Godoy Cruz Active 117 / 115 40% 1 12.09.2026 -
João Klauss LA Galaxy Active 129 / 120 40% 1 17.08.2026 -
El Hadji Malick Diouf Brentford Active 138 / 145 40% 1 07.08.2026 -
Aaron Hickey Brentford Active 141 / 148 40% 1 07.08.2026 -
Cody Gakpo Liverpool Active 156 / 159 40% 1 07.08.2026 -
Nahuel Molina AS Roma Active 150 / 145 40% 1 02.08.2026 -
Sergio Reguilón Inter Miami CF Active 141 / 135 40% 1 02.08.2026 -